Time;durP1;ratioP1;P1;durP2;ratioP2;P2;SDS_P1;SDS_P2;PMS_P1;PMS_P2;Temp;Humidity;BMP_temperature;BMP_pressure;BME280_temperature;BME280_humidity;BME280_pressure;Samples;Min_cycle;Max_cycle;Signal;HPM_P1;HPM_P2
2022/06/09 00:01:41;;;;;;;4.18;1.27;;;;;;;14.53;82.02;98057.50;4154880;28;20271;-53
2022/06/09 00:03:46;;;;;;;0.98;0.80;;;;;;;14.42;82.41;98065.00;4174127;28;20639;-53
2022/06/09 00:05:48;;;;;;;2.83;0.90;;;;;;;14.44;82.46;98064.75;4155054;28;20610;-53
2022/06/09 00:07:50;;;;;;;2.50;1.05;;;;;;;14.47;82.28;98064.16;4144086;28;20236;-53
2022/06/09 00:09:57;;;;;;;2.95;1.10;;;;;;;14.48;82.17;98061.13;4159770;28;20204;-54
2022/06/09 00:11:59;;;;;;;7.88;0.90;;;;;;;14.41;82.46;98076.31;4154108;28;20243;-54
2022/06/09 00:14:01;;;;;;;1.00;0.93;;;;;;;14.36;82.52;98074.41;4138331;28;20283;-53
2022/06/09 00:16:03;;;;;;;1.08;0.85;;;;;;;14.51;82.10;98074.31;4154461;28;20213;-55
2022/06/09 00:18:05;;;;;;;2.88;1.00;;;;;;;14.41;82.02;98074.38;4155069;28;20212;-55
2022/06/09 00:20:07;;;;;;;2.92;1.10;;;;;;;14.35;82.08;98071.94;4155820;28;20230;-54
2022/06/09 00:22:09;;;;;;;0.80;0.80;;;;;;;14.28;82.54;98072.25;4160876;28;20575;-54
2022/06/09 00:24:11;;;;;;;3.17;1.25;;;;;;;14.31;82.59;98079.94;4159377;28;20244;-55
2022/06/09 00:26:13;;;;;;;2.17;1.30;;;;;;;14.30;82.40;98081.06;4156311;28;20208;-54
2022/06/09 00:28:15;;;;;;;1.95;1.00;;;;;;;14.33;82.38;98083.25;4160967;28;20204;-54
2022/06/09 00:30:17;;;;;;;1.17;0.90;;;;;;;14.33;82.36;98086.00;4156481;28;20212;-55
2022/06/09 00:32:18;;;;;;;0.75;0.73;;;;;;;14.32;82.26;98097.28;4153418;28;20229;-54
2022/06/09 00:34:20;;;;;;;2.25;0.80;;;;;;;14.25;82.33;98094.88;4153146;28;20278;-55
2022/06/09 00:36:22;;;;;;;3.17;0.88;;;;;;;14.30;82.08;98086.56;4153647;28;20212;-54
2022/06/09 00:38:24;;;;;;;3.28;1.17;;;;;;;14.27;82.34;98092.66;4157422;28;20213;-54
2022/06/09 00:40:26;;;;;;;1.23;0.88;;;;;;;14.28;82.17;98093.44;4157903;28;20205;-55
2022/06/09 00:42:28;;;;;;;1.13;1.00;;;;;;;14.26;82.33;98096.50;4155474;28;20267;-55
2022/06/09 00:44:30;;;;;;;1.08;0.90;;;;;;;14.26;82.14;98091.00;4154286;28;20234;-54
2022/06/09 00:46:32;;;;;;;1.00;0.90;;;;;;;14.24;82.15;98104.19;4155014;28;20208;-55
2022/06/09 00:48:40;;;;;;;1.38;1.25;;;;;;;14.22;82.07;98106.44;4141647;28;20241;-55
2022/06/09 00:50:42;;;;;;;1.33;0.88;;;;;;;14.27;81.91;98103.66;4154871;28;20701;-54
2022/06/09 00:52:49;;;;;;;1.83;0.93;;;;;;;14.29;82.04;98109.69;4158391;28;20761;-55
2022/06/09 00:54:54;;;;;;;1.35;0.93;;;;;;;14.25;81.97;98105.88;4155259;28;20212;-55
2022/06/09 00:57:04;;;;;;;3.55;1.33;;;;;;;14.28;82.24;98119.06;4159988;28;20655;-54
2022/06/09 00:59:06;;;;;;;1.45;1.00;;;;;;;14.26;82.40;98112.19;4143751;28;20213;-56
2022/06/09 01:01:12;;;;;;;3.60;1.13;;;;;;;14.23;82.78;98124.56;4154911;28;20240;-55
2022/06/09 01:03:16;;;;;;;2.33;1.20;;;;;;;14.23;82.68;98118.28;4158808;28;20236;-53
2022/06/09 01:05:20;;;;;;;3.38;1.10;;;;;;;14.29;82.56;98123.44;4139568;28;20560;-55
2022/06/09 01:07:30;;;;;;;1.17;1.08;;;;;;;14.33;82.42;98124.53;4152864;28;20213;-53
2022/06/09 01:09:32;;;;;;;1.45;1.15;;;;;;;14.25;82.40;98121.56;4155408;28;20718;-55
2022/06/09 01:11:34;;;;;;;2.63;1.30;;;;;;;14.24;82.36;98137.22;4155519;28;20303;-53
2022/06/09 01:13:36;;;;;;;1.33;1.17;;;;;;;14.23;82.55;98134.78;4155063;28;20320;-53
2022/06/09 01:15:43;;;;;;;3.88;1.20;;;;;;;14.21;82.63;98132.31;4156616;28;20271;-54
2022/06/09 01:17:54;;;;;;;2.03;1.58;;;;;;;14.09;83.59;98129.03;4157372;28;20200;-54
2022/06/09 01:20:04;;;;;;;1.48;1.10;;;;;;;14.12;83.26;98131.22;4154638;28;20769;-54
2022/06/09 01:22:25;;;;;;;11.05;1.42;;;;;;;14.13;83.29;98130.13;4155537;28;20212;-54
2022/06/09 01:24:41;;;;;;;2.15;1.30;;;;;;;14.07;83.31;98131.25;4154182;28;20286;-54
2022/06/09 01:26:47;;;;;;;2.80;1.50;;;;;;;14.13;83.52;98130.13;4158414;28;20568;-55
2022/06/09 01:28:56;;;;;;;2.85;1.63;;;;;;;14.14;83.42;98126.25;4155272;28;20219;-54
2022/06/09 01:31:01;;;;;;;3.75;1.58;;;;;;;14.21;83.33;98126.81;4158051;28;20228;-55
2022/06/09 01:33:23;;;;;;;1.95;1.52;;;;;;;14.14;83.21;98118.00;4158719;28;20229;-55
2022/06/09 01:35:30;;;;;;;4.45;1.90;;;;;;;14.08;83.65;98127.38;4161574;28;20205;-55
2022/06/09 01:37:35;;;;;;;8.85;1.83;;;;;;;14.13;83.54;98119.09;4159933;28;20208;-53
2022/06/09 01:39:49;;;;;;;3.17;1.60;;;;;;;14.21;83.28;98110.28;4157798;28;21044;-55
2022/06/09 01:41:51;;;;;;;1.75;1.52;;;;;;;14.15;83.49;98116.88;4167973;28;20253;-54
2022/06/09 01:43:54;;;;;;;3.80;1.67;;;;;;;14.14;83.53;98119.91;4153862;28;20225;-54
2022/06/09 01:46:02;;;;;;;3.38;2.15;;;;;;;14.12;83.41;98125.72;4151509;28;20209;-55
2022/06/09 01:48:04;;;;;;;2.05;1.50;;;;;;;14.16;83.29;98124.03;4156866;28;20204;-54
2022/06/09 01:50:10;;;;;;;2.80;2.13;;;;;;;14.20;83.34;98118.81;4156659;28;20216;-54
2022/06/09 01:52:11;;;;;;;3.08;2.05;;;;;;;14.14;83.16;98115.25;4157624;28;20266;-54
2022/06/09 01:54:18;;;;;;;3.33;2.08;;;;;;;14.13;83.52;98124.59;4145680;28;20259;-54
2022/06/09 01:56:32;;;;;;;1.83;1.70;;;;;;;14.23;83.03;98119.06;4153236;28;20232;-55
2022/06/09 01:58:39;;;;;;;3.92;2.78;;;;;;;14.19;83.01;98115.25;4152558;28;20246;-54
2022/06/09 02:00:41;;;;;;;4.10;2.17;;;;;;;14.14;83.11;98120.75;4146921;28;20213;-54
2022/06/09 02:03:06;;;;;;;3.85;2.00;;;;;;;13.98;83.73;98127.41;4160916;28;20243;-55
2022/06/09 02:05:19;;;;;;;2.75;1.60;;;;;;;13.99;83.78;98128.25;4149889;28;20208;-54
2022/06/09 02:07:21;;;;;;;4.60;2.05;;;;;;;13.97;83.48;98127.72;4135713;28;20331;-53
2022/06/09 02:09:28;;;;;;;2.72;2.40;;;;;;;13.85;84.26;98122.53;4153869;28;20694;-54
2022/06/09 02:11:30;;;;;;;2.30;1.73;;;;;;;13.90;83.84;98117.00;4155321;28;20306;-54
2022/06/09 02:13:36;;;;;;;1.90;1.75;;;;;;;13.92;83.74;98123.06;4152200;28;20626;-54
2022/06/09 02:15:41;;;;;;;4.57;1.75;;;;;;;13.94;83.92;98120.00;4155596;28;20276;-55
2022/06/09 02:17:44;;;;;;;2.50;1.40;;;;;;;13.73;84.60;98133.00;4154623;28;20204;-55
2022/06/09 02:19:47;;;;;;;2.92;1.70;;;;;;;13.76;85.05;98126.94;4153253;28;20234;-54
2022/06/09 02:21:49;;;;;;;3.42;1.75;;;;;;;13.73;84.40;98133.00;4151162;28;20215;-54
2022/06/09 02:23:52;;;;;;;6.07;2.08;;;;;;;13.82;84.36;98134.06;4154973;28;20270;-54
2022/06/09 02:25:54;;;;;;;4.93;2.28;;;;;;;13.78;84.47;98134.91;4153305;28;20771;-54
2022/06/09 02:27:55;;;;;;;2.47;1.70;;;;;;;13.86;84.24;98140.69;4149719;28;20247;-55
2022/06/09 02:29:57;;;;;;;2.58;2.05;;;;;;;13.78;84.25;98134.91;4155036;28;20235;-54
2022/06/09 02:31:59;;;;;;;6.45;2.47;;;;;;;13.78;84.24;98132.97;4155574;28;20212;-55
2022/06/09 02:34:02;;;;;;;3.97;1.70;;;;;;;13.75;84.49;98136.31;4152642;28;20225;-55
2022/06/09 02:36:03;;;;;;;3.88;1.92;;;;;;;13.72;84.46;98131.38;4153343;28;20213;-53
2022/06/09 02:38:05;;;;;;;3.13;1.65;;;;;;;13.53;85.01;98134.97;4157240;28;20209;-53
2022/06/09 02:40:07;;;;;;;1.67;1.50;;;;;;;13.58;84.89;98133.03;4150848;28;20211;-54
2022/06/09 02:42:09;;;;;;;3.92;1.60;;;;;;;13.59;84.84;98129.22;4155045;28;20235;-54
2022/06/09 02:44:10;;;;;;;1.33;1.23;;;;;;;13.63;84.60;98130.28;4153562;28;20224;-55
2022/06/09 02:46:12;;;;;;;1.85;1.63;;;;;;;13.68;84.30;98127.53;4150327;28;20807;-55
2022/06/09 02:48:14;;;;;;;4.40;1.95;;;;;;;13.59;84.72;98129.22;4150440;28;20295;-55
2022/06/09 02:50:16;;;;;;;2.38;2.25;;;;;;;13.56;84.76;98131.69;4150660;28;21166;-55
2022/06/09 02:52:18;;;;;;;2.13;1.70;;;;;;;13.54;84.51;98131.97;4157071;28;20247;-55
2022/06/09 02:54:21;;;;;;;2.60;1.95;;;;;;;13.63;84.36;98134.97;4149047;28;20235;-55
2022/06/09 02:56:23;;;;;;;5.28;1.75;;;;;;;13.41;84.94;98129.78;4152941;28;20213;-55
2022/06/09 02:58:24;;;;;;;4.50;2.22;;;;;;;13.33;85.22;98135.00;4154144;28;20617;-55
2022/06/09 03:00:26;;;;;;;1.88;1.58;;;;;;;13.32;85.22;98134.22;4156911;28;20212;-54
2022/06/09 03:02:28;;;;;;;1.92;1.48;;;;;;;13.35;85.20;98139.13;4143365;28;20213;-53
2022/06/09 03:04:29;;;;;;;1.73;1.52;;;;;;;13.34;85.31;98142.16;4154636;28;20240;-54
2022/06/09 03:06:32;;;;;;;6.47;2.25;;;;;;;13.40;85.16;98139.13;4162297;28;20201;-54
2022/06/09 03:08:34;;;;;;;3.60;1.50;;;;;;;13.40;85.01;98132.81;4155174;28;20209;-55
2022/06/09 03:10:37;;;;;;;5.28;1.73;;;;;;;13.44;84.47;98140.22;4152015;28;20203;-55
2022/06/09 03:12:38;;;;;;;4.30;1.58;;;;;;;13.44;84.61;98144.91;4156350;28;20282;-54
2022/06/09 03:14:40;;;;;;;4.40;2.00;;;;;;;13.38;84.25;98138.56;4154427;28;20656;-55
2022/06/09 03:16:42;;;;;;;3.13;1.77;;;;;;;13.33;84.64;98141.34;4153094;28;20209;-55
2022/06/09 03:18:44;;;;;;;2.45;1.30;;;;;;;13.43;84.26;98146.81;4157261;28;20217;-54
2022/06/09 03:20:47;;;;;;;4.18;1.85;;;;;;;13.31;84.28;98138.03;4155119;28;20227;-53
2022/06/09 03:22:48;;;;;;;3.10;1.60;;;;;;;13.31;84.54;98138.03;4155753;28;21021;-54
2022/06/09 03:24:50;;;;;;;2.63;1.35;;;;;;;13.33;84.33;98135.84;4152895;28;20668;-54
2022/06/09 03:26:52;;;;;;;6.43;1.92;;;;;;;13.24;84.74;98145.72;4153689;28;20626;-54
2022/06/09 03:28:54;;;;;;;3.80;1.33;;;;;;;13.21;84.33;98149.03;4152909;28;20201;-54
2022/06/09 03:30:56;;;;;;;2.40;1.73;;;;;;;13.13;84.92;98146.03;4157053;28;20243;-54
2022/06/09 03:32:58;;;;;;;6.88;2.53;;;;;;;13.14;84.54;98148.50;4159007;28;20748;-54
2022/06/09 03:35:00;;;;;;;3.10;1.80;;;;;;;13.09;84.89;98156.75;4161066;28;20227;-53
2022/06/09 03:37:02;;;;;;;2.95;1.70;;;;;;;13.07;84.86;98150.69;4158125;28;20562;-55
2022/06/09 03:39:04;;;;;;;2.15;1.90;;;;;;;13.07;85.01;98152.63;4158686;28;20208;-55
2022/06/09 03:41:07;;;;;;;5.63;2.47;;;;;;;13.07;84.83;98152.63;4158110;28;20241;-55
2022/06/09 03:43:09;;;;;;;2.67;2.03;;;;;;;13.06;84.79;98157.31;4156628;28;20295;-55
2022/06/09 03:45:11;;;;;;;3.10;1.40;;;;;;;13.02;85.01;98153.44;4153662;28;20239;-55
2022/06/09 03:47:13;;;;;;;2.95;1.83;;;;;;;13.10;84.88;98158.38;4156785;28;20208;-55
2022/06/09 03:49:15;;;;;;;2.95;1.80;;;;;;;13.08;84.94;98163.34;4168077;28;20200;-54
2022/06/09 03:51:17;;;;;;;3.42;1.73;;;;;;;13.11;84.90;98154.53;4172874;28;20242;-54
2022/06/09 03:53:19;;;;;;;7.38;1.70;;;;;;;13.14;84.72;98159.50;4159773;28;20310;-55
2022/06/09 03:55:21;;;;;;;3.33;1.85;;;;;;;13.15;84.77;98165.78;4155462;28;20240;-54
2022/06/09 03:57:22;;;;;;;2.40;2.20;;;;;;;13.06;85.22;98173.78;4156628;28;20206;-54
2022/06/09 03:59:24;;;;;;;4.85;1.92;;;;;;;13.07;85.12;98180.91;4158963;28;20388;-55
2022/06/09 04:01:26;;;;;;;2.65;1.92;;;;;;;13.11;84.42;98181.19;4159045;28;20299;-55
2022/06/09 04:03:29;;;;;;;3.70;2.00;;;;;;;12.92;85.71;98186.38;4155054;28;20228;-54
2022/06/09 04:05:32;;;;;;;6.45;1.92;;;;;;;13.04;85.39;98197.94;4158120;28;20228;-54
2022/06/09 04:07:33;;;;;;;3.25;1.90;;;;;;;13.00;85.40;98196.00;4157115;28;20208;-53
2022/06/09 04:09:35;;;;;;;8.68;2.50;;;;;;;12.98;85.32;98198.22;4158444;28;20196;-55
2022/06/09 04:11:37;;;;;;;2.13;1.92;;;;;;;13.01;85.33;98204.00;4152303;28;20598;-54
2022/06/09 04:13:39;;;;;;;3.42;2.80;;;;;;;13.01;85.21;98198.50;4157361;28;20624;-54
2022/06/09 04:15:44;;;;;;;5.75;1.90;;;;;;;13.04;84.93;98203.44;4159064;28;20304;-53
2022/06/09 04:17:47;;;;;;;2.85;2.17;;;;;;;13.01;85.06;98204.00;4155806;28;20212;-53
2022/06/09 04:19:48;;;;;;;7.47;1.90;;;;;;;13.02;85.32;98207.53;4156292;28;20274;-54
2022/06/09 04:21:50;;;;;;;5.15;2.38;;;;;;;13.00;85.34;98209.75;4156304;28;20270;-54
2022/06/09 04:23:52;;;;;;;12.93;2.03;;;;;;;13.05;84.89;98216.06;4155684;28;20271;-54
2022/06/09 04:25:54;;;;;;;3.47;1.95;;;;;;;13.08;85.25;98214.69;4158651;28;20212;-54
2022/06/09 04:27:55;;;;;;;7.00;2.60;;;;;;;12.99;84.89;98219.09;4157882;28;20201;-54
2022/06/09 04:29:57;;;;;;;4.95;1.80;;;;;;;13.05;84.91;98227.03;4160607;28;20686;-54
2022/06/09 04:31:59;;;;;;;3.55;1.95;;;;;;;13.07;84.82;98215.78;4156643;28;20209;-53
2022/06/09 04:34:01;;;;;;;5.53;1.83;;;;;;;13.21;84.45;98231.47;4154456;28;20227;-55
2022/06/09 04:36:04;;;;;;;5.78;2.25;;;;;;;13.05;84.92;98231.72;4158457;28;20205;-54
2022/06/09 04:38:07;;;;;;;2.25;1.88;;;;;;;13.12;84.83;98227.63;4157568;28;20255;-53
2022/06/09 04:40:10;;;;;;;3.28;2.03;;;;;;;13.01;85.05;98234.19;4157977;28;20691;-54
2022/06/09 04:42:11;;;;;;;4.78;2.28;;;;;;;13.12;84.52;98237.78;4160523;28;20216;-54
2022/06/09 04:44:13;;;;;;;4.65;2.28;;;;;;;13.09;84.47;98233.66;4153568;28;20221;-55
2022/06/09 04:46:21;;;;;;;3.03;2.17;;;;;;;13.01;84.92;98247.94;4151753;28;20214;-54
2022/06/09 04:48:22;;;;;;;2.53;2.10;;;;;;;13.05;84.69;98238.03;4138759;28;20216;-54
2022/06/09 04:50:24;;;;;;;3.97;2.00;;;;;;;13.00;84.54;98229.81;4155537;28;20224;-53
2022/06/09 04:52:26;;;;;;;5.43;2.35;;;;;;;13.03;84.65;98237.50;4155778;28;20677;-55
2022/06/09 04:54:27;;;;;;;12.40;2.22;;;;;;;13.01;84.55;98233.38;4153155;28;20241;-54
2022/06/09 04:56:29;;;;;;;4.43;1.83;;;;;;;13.02;84.59;98244.09;4154005;28;20241;-53
2022/06/09 04:58:31;;;;;;;4.03;2.42;;;;;;;13.02;84.41;98244.09;4152660;28;20212;-55
2022/06/09 05:00:36;;;;;;;8.55;1.85;;;;;;;13.10;84.05;98246.28;4151944;28;20236;-54
2022/06/09 05:02:37;;;;;;;10.27;2.55;;;;;;;13.08;84.35;98251.25;4156016;28;20557;-54
2022/06/09 05:04:39;;;;;;;5.63;1.98;;;;;;;13.10;84.25;98256.47;4156656;28;20209;-55
2022/06/09 05:06:41;;;;;;;4.55;2.30;;;;;;;13.18;84.00;98266.91;4156149;28;20700;-55
2022/06/09 05:08:42;;;;;;;3.80;1.90;;;;;;;13.13;83.52;98267.75;4157487;28;20232;-55
2022/06/09 05:10:46;;;;;;;9.63;1.90;;;;;;;13.06;83.85;98267.19;4162676;28;20209;-54
2022/06/09 05:12:47;;;;;;;4.60;1.90;;;;;;;13.18;83.63;98278.72;4161186;28;20239;-54
2022/06/09 05:14:52;;;;;;;5.03;1.70;;;;;;;13.21;83.59;98275.44;4156483;28;20781;-55
2022/06/09 05:16:53;;;;;;;4.60;1.83;;;;;;;13.25;84.02;98281.22;4160345;28;20216;-55
2022/06/09 05:18:55;;;;;;;5.63;2.03;;;;;;;13.29;83.53;98288.63;4159557;28;20225;-55
2022/06/09 05:20:57;;;;;;;2.03;1.30;;;;;;;13.25;84.09;98289.47;4152648;28;20259;-54
2022/06/09 05:22:59;;;;;;;4.03;1.52;;;;;;;13.39;83.35;98298.81;4155505;28;20243;-55
2022/06/09 05:25:01;;;;;;;8.52;2.35;;;;;;;13.37;83.24;98290.84;4157143;28;20228;-55
2022/06/09 05:27:06;;;;;;;11.35;2.17;;;;;;;13.37;83.23;98290.84;4157399;28;20220;-54
2022/06/09 05:29:08;;;;;;;4.13;1.52;;;;;;;13.48;83.00;98300.75;4154911;28;20200;-55
2022/06/09 05:31:10;;;;;;;3.30;2.05;;;;;;;13.34;83.01;98307.88;4164685;28;20205;-55
2022/06/09 05:33:12;;;;;;;4.65;1.75;;;;;;;13.35;82.99;98315.03;4164102;28;20221;-53
2022/06/09 05:35:15;;;;;;;4.93;2.17;;;;;;;13.36;83.10;98305.69;4160424;28;20270;-54
2022/06/09 05:37:16;;;;;;;4.78;1.75;;;;;;;13.38;82.76;98317.22;4158896;28;20213;-54
2022/06/09 05:46:22;;;;;;;12.13;2.38;;;;;;;13.37;82.14;98329.31;4153888;28;20201;-55
2022/06/09 05:48:24;;;;;;;7.88;1.90;;;;;;;13.33;82.48;98332.88;4151761;28;20261;-54
2022/06/09 05:50:26;;;;;;;3.45;1.90;;;;;;;13.37;82.19;98334.81;4153054;28;20227;-54
2022/06/09 05:52:28;;;;;;;5.50;1.77;;;;;;;13.39;82.09;98338.13;4155403;28;20208;-54
2022/06/09 05:54:30;;;;;;;5.43;1.58;;;;;;;13.28;82.19;98338.38;4157861;28;20270;-55
2022/06/09 05:56:32;;;;;;;3.60;1.77;;;;;;;13.26;82.32;98344.16;4151911;28;20232;-57
2022/06/09 05:58:35;;;;;;;3.13;1.70;;;;;;;13.34;82.29;98346.38;4155341;28;20228;-54
2022/06/09 06:00:38;;;;;;;3.20;1.63;;;;;;;13.46;81.79;98346.94;4156172;28;20201;-55
2022/06/09 06:02:46;;;;;;;4.70;1.38;;;;;;;13.41;82.19;98340.59;4153198;28;20682;-55
2022/06/09 06:04:48;;;;;;;4.65;1.15;;;;;;;13.52;81.81;98345.84;4153907;28;20197;-55
2022/06/09 06:06:50;;;;;;;8.52;1.98;;;;;;;13.41;82.04;98360.66;4156127;28;20209;-55
2022/06/09 06:08:51;;;;;;;5.32;1.33;;;;;;;13.44;81.72;98362.06;4152989;28;20209;-54
2022/06/09 06:10:53;;;;;;;5.38;1.45;;;;;;;13.27;80.94;98373.28;4153715;28;20205;-54
2022/06/09 06:12:55;;;;;;;4.82;1.92;;;;;;;13.42;81.59;98376.06;4157330;28;20227;-57
2022/06/09 06:14:57;;;;;;;6.35;1.83;;;;;;;13.36;81.58;98371.66;4145643;28;20778;-55
2022/06/09 06:16:59;;;;;;;3.67;1.30;;;;;;;13.24;81.22;98379.31;4162530;28;20201;-55
2022/06/09 06:19:03;;;;;;;1.95;1.20;;;;;;;13.43;80.84;98374.97;4171040;28;20281;-55
2022/06/09 06:21:04;;;;;;;2.20;1.15;;;;;;;13.44;80.70;98384.03;4159608;28;20235;-54
2022/06/09 06:23:06;;;;;;;5.57;1.75;;;;;;;13.36;80.62;98382.63;4159927;28;20253;-55
2022/06/09 06:25:16;;;;;;;4.55;1.88;;;;;;;13.35;80.76;98385.66;4164173;28;20216;-55
2022/06/09 06:27:17;;;;;;;4.28;1.63;;;;;;;13.30;80.17;98391.97;4156175;28;20208;-55
2022/06/09 06:29:39;;;;;;;6.65;1.80;;;;;;;13.39;80.19;98393.09;4161764;28;20215;-55
2022/06/09 06:31:43;;;;;;;7.93;1.45;;;;;;;13.49;80.22;98393.13;4156043;28;20204;-54
2022/06/09 06:33:45;;;;;;;4.88;1.25;;;;;;;13.50;80.23;98393.97;4174369;28;20233;-55
2022/06/09 06:35:47;;;;;;;5.30;1.83;;;;;;;13.44;79.42;98404.09;4156878;28;20653;-55
2022/06/09 06:37:49;;;;;;;5.13;1.33;;;;;;;13.50;79.66;98400.25;4157598;28;20211;-55
2022/06/09 06:39:51;;;;;;;7.15;1.45;;;;;;;13.49;79.97;98397.81;4158676;28;20239;-54
2022/06/09 06:41:58;;;;;;;6.13;2.15;;;;;;;13.36;79.52;98403.81;4161436;28;20702;-55
2022/06/09 06:44:06;;;;;;;2.78;2.03;;;;;;;13.56;79.05;98410.19;4160280;28;20294;-54
2022/06/09 06:46:09;;;;;;;2.78;1.30;;;;;;;13.61;79.29;98407.44;4157278;28;20255;-54
2022/06/09 06:48:11;;;;;;;6.95;2.22;;;;;;;13.73;79.17;98410.78;4161427;28;20353;-55
2022/06/09 06:50:14;;;;;;;3.35;1.40;;;;;;;13.68;78.92;98408.00;4159632;28;20212;-56
2022/06/09 06:52:22;;;;;;;6.32;1.52;;;;;;;13.66;78.42;98412.97;4156893;28;20208;-55
2022/06/09 06:54:27;;;;;;;4.57;1.58;;;;;;;13.72;78.93;98417.38;4157720;28;20225;-54
2022/06/09 06:56:29;;;;;;;8.93;1.83;;;;;;;13.82;78.87;98420.13;4155656;28;20207;-55
2022/06/09 06:58:31;;;;;;;5.03;1.17;;;;;;;13.66;78.14;98420.38;4159337;28;20197;-55
2022/06/09 07:00:34;;;;;;;6.70;2.60;;;;;;;13.75;79.11;98422.31;4156473;28;20208;-55
2022/06/09 07:02:36;;;;;;;13.20;1.80;;;;;;;13.83;78.88;98426.47;4160519;28;20279;-55
2022/06/09 07:04:59;;;;;;;4.80;1.90;;;;;;;13.96;78.66;98437.75;4150726;28;20677;-56
2022/06/09 07:07:04;;;;;;;10.05;1.35;;;;;;;14.03;78.14;98435.56;4157384;28;20263;-56
2022/06/09 07:09:06;;;;;;;5.72;2.03;;;;;;;14.14;78.28;98428.97;4145402;28;20609;-55
2022/06/09 07:11:10;;;;;;;6.45;1.42;;;;;;;14.12;77.85;98436.69;4143360;28;20667;-55
2022/06/09 07:13:13;;;;;;;4.40;1.73;;;;;;;14.27;78.24;98442.22;4159713;28;20226;-55
2022/06/09 07:15:15;;;;;;;4.00;1.58;;;;;;;14.04;76.75;98439.94;4158062;28;20282;-55
2022/06/09 07:17:17;;;;;;;8.45;2.45;;;;;;;14.19;77.82;98447.44;4161696;28;20650;-54
2022/06/09 07:19:19;;;;;;;4.32;1.38;;;;;;;14.32;77.14;98442.22;4166288;28;20208;-55
2022/06/09 07:21:27;;;;;;;9.90;2.15;;;;;;;14.08;76.99;98457.56;4165851;28;20212;-55
2022/06/09 07:23:30;;;;;;;6.63;1.58;;;;;;;14.06;76.35;98457.03;4158539;28;20231;-54
2022/06/09 07:25:32;;;;;;;4.57;1.63;;;;;;;14.19;77.03;98458.44;4143731;28;20213;-54
2022/06/09 07:27:34;;;;;;;4.72;1.67;;;;;;;14.36;77.52;98454.31;4130634;28;20620;-54
2022/06/09 07:29:36;;;;;;;9.13;2.25;;;;;;;14.32;77.51;98449.63;4158934;28;20207;-56
2022/06/09 07:31:40;;;;;;;4.53;1.67;;;;;;;14.42;77.06;98455.16;4157993;28;20208;-54
2022/06/09 07:33:43;;;;;;;4.30;1.42;;;;;;;14.49;77.33;98453.75;4160862;28;20223;-53
2022/06/09 07:35:53;;;;;;;4.35;1.45;;;;;;;14.57;76.34;98449.63;4161597;28;20232;-55
2022/06/09 07:37:55;;;;;;;7.75;1.50;;;;;;;14.53;74.97;98460.38;4163586;28;20204;-55
2022/06/09 07:39:57;;;;;;;3.03;1.27;;;;;;;14.44;75.76;98464.75;4164720;28;20617;-54
2022/06/09 07:42:01;;;;;;;10.60;1.88;;;;;;;14.60;75.94;98460.06;4163704;28;20655;-55
2022/06/09 07:44:09;;;;;;;4.75;1.55;;;;;;;14.48;75.17;98465.88;4163619;28;20279;-54
2022/06/09 07:46:12;;;;;;;10.00;2.08;;;;;;;14.51;76.28;98454.28;4161160;28;20239;-54
2022/06/09 07:48:14;;;;;;;4.22;2.00;;;;;;;14.53;75.34;98463.13;4178561;28;20209;-54
2022/06/09 07:50:37;;;;;;;2.17;1.13;;;;;;;14.51;75.20;98462.56;4160736;28;20275;-55
2022/06/09 07:52:43;;;;;;;6.20;1.70;;;;;;;14.50;75.87;98471.91;4162235;28;20205;-54
2022/06/09 07:54:46;;;;;;;7.53;2.13;;;;;;;14.60;76.63;98469.19;4164078;28;20220;-54
2022/06/09 07:56:51;;;;;;;6.03;1.58;;;;;;;14.82;75.93;98472.44;4163850;28;20249;-55
2022/06/09 07:58:52;;;;;;;3.80;1.67;;;;;;;14.64;75.08;98467.50;4165553;28;20793;-55
2022/06/09 08:00:58;;;;;;;4.45;1.17;;;;;;;14.58;75.32;98473.31;4162046;28;20266;-55
2022/06/09 08:03:03;;;;;;;6.40;2.03;;;;;;;14.61;75.67;98473.56;4164791;28;20278;-55
2022/06/09 08:05:09;;;;;;;6.43;1.88;;;;;;;14.61;75.98;98478.25;4163663;28;20200;-54
2022/06/09 08:07:11;;;;;;;7.30;1.50;;;;;;;14.62;75.35;98472.47;4160980;28;20216;-54
2022/06/09 08:09:12;;;;;;;3.90;1.85;;;;;;;14.48;74.72;98482.41;4160002;28;20216;-55
2022/06/09 08:11:14;;;;;;;13.77;1.77;;;;;;;14.46;75.10;98481.84;4165444;28;20208;-56
2022/06/09 08:13:16;;;;;;;4.07;1.17;;;;;;;14.49;75.23;98475.78;4165610;28;20271;-54
2022/06/09 08:15:18;;;;;;;3.90;1.85;;;;;;;14.71;75.01;98484.56;4164384;28;20225;-55
2022/06/09 08:17:20;;;;;;;7.82;2.08;;;;;;;14.63;74.95;98476.88;4159917;28;20219;-55
2022/06/09 08:19:22;;;;;;;9.18;1.83;;;;;;;14.59;75.11;98485.97;4154965;28;20213;-55
2022/06/09 08:21:25;;;;;;;5.55;1.48;;;;;;;14.62;74.93;98486.25;4164715;28;20287;-55
2022/06/09 08:23:44;;;;;;;4.57;1.83;;;;;;;14.72;73.82;98469.72;4159410;28;20586;-54
2022/06/09 08:25:46;;;;;;;3.35;1.35;;;;;;;14.70;74.36;98482.91;4162225;28;20635;-54
2022/06/09 08:27:48;;;;;;;5.70;2.15;;;;;;;14.89;74.64;98486.75;4163338;28;20208;-54
2022/06/09 08:29:51;;;;;;;9.98;1.98;;;;;;;15.03;73.85;98487.81;4158231;28;20297;-55
2022/06/09 08:31:53;;;;;;;4.00;1.40;;;;;;;15.07;72.29;98488.94;4159167;28;20200;-56
2022/06/09 08:33:55;;;;;;;3.22;1.58;;;;;;;15.05;73.08;98501.34;4159762;28;20278;-55
2022/06/09 08:35:58;;;;;;;5.03;2.22;;;;;;;15.15;72.84;98491.09;4155976;28;20660;-55
2022/06/09 08:38:06;;;;;;;5.68;1.45;;;;;;;15.29;72.92;98492.16;4157612;28;20266;-55
2022/06/09 08:40:12;;;;;;;5.32;1.55;;;;;;;15.29;73.05;98497.69;4161702;28;20643;-55
2022/06/09 08:42:25;;;;;;;4.40;1.58;;;;;;;15.33;72.45;98497.97;4154641;28;20242;-55
2022/06/09 08:44:37;;;;;;;2.92;1.30;;;;;;;15.17;72.68;98501.88;4154780;28;20224;-55
2022/06/09 08:46:44;;;;;;;6.05;1.67;;;;;;;15.16;72.86;98506.53;4158773;28;20213;-55
2022/06/09 08:48:47;;;;;;;3.20;1.00;;;;;;;15.05;71.49;98512.38;4150439;28;20196;-55
2022/06/09 08:51:01;;;;;;;5.60;2.00;;;;;;;15.20;72.65;98515.91;4160009;28;20208;-54
2022/06/09 08:53:16;;;;;;;4.15;1.88;;;;;;;15.19;72.93;98508.75;4168034;28;20301;-55
2022/06/09 08:55:30;;;;;;;3.85;1.42;;;;;;;15.34;72.14;98518.94;4158169;28;20322;-55
2022/06/09 08:57:33;;;;;;;3.88;1.40;;;;;;;15.27;71.92;98516.44;4158260;28;20840;-54
2022/06/09 08:59:37;;;;;;;3.45;1.40;;;;;;;15.26;72.11;98530.50;4154333;28;20286;-55
2022/06/09 09:01:43;;;;;;;3.75;1.40;;;;;;;15.42;73.10;98530.22;4159131;28;20240;-55
2022/06/09 09:03:57;;;;;;;5.68;1.10;;;;;;;15.41;71.56;98533.25;4157526;28;20579;-55
2022/06/09 09:06:07;;;;;;;3.88;1.15;;;;;;;15.38;70.83;98531.06;4148058;28;20641;-54
2022/06/09 09:08:09;;;;;;;5.93;1.15;;;;;;;15.43;70.41;98534.63;4152388;28;20201;-54
2022/06/09 09:10:22;;;;;;;3.97;1.17;;;;;;;15.43;70.84;98531.84;4153864;28;20806;-56
2022/06/09 09:12:36;;;;;;;5.25;1.40;;;;;;;15.49;71.32;98529.94;4157210;28;20221;-55
2022/06/09 09:14:47;;;;;;;2.85;1.27;;;;;;;15.52;71.10;98538.47;4158691;28;20308;-54
2022/06/09 09:17:11;;;;;;;5.90;1.20;;;;;;;15.77;71.93;98537.53;4157632;28;20253;-54
2022/06/09 09:19:25;;;;;;;3.65;1.40;;;;;;;15.88;71.69;98544.63;4152979;28;20224;-55
2022/06/09 09:21:45;;;;;;;8.25;1.35;;;;;;;15.98;71.04;98541.84;4159288;28;20212;-54
2022/06/09 09:24:05;;;;;;;3.05;1.40;;;;;;;15.84;70.35;98543.56;4164360;28;20572;-55
2022/06/09 09:26:17;;;;;;;4.35;1.30;;;;;;;16.20;71.32;98543.09;4159095;28;20197;-54
2022/06/09 09:28:20;;;;;;;5.63;1.20;;;;;;;16.41;69.28;98543.81;4163805;28;20295;-54
2022/06/09 09:30:29;;;;;;;4.30;1.23;;;;;;;16.47;69.91;98543.50;4160050;28;20211;-55
2022/06/09 09:32:40;;;;;;;7.40;1.70;;;;;;;16.69;69.29;98557.69;4172425;28;20239;-55
2022/06/09 09:34:44;;;;;;;7.80;1.80;;;;;;;16.86;67.61;98547.06;4161749;28;20208;-54
2022/06/09 09:36:50;;;;;;;3.20;1.58;;;;;;;17.16;68.06;98557.81;4162013;28;20700;-54
2022/06/09 09:38:56;;;;;;;5.90;1.38;;;;;;;17.31;66.84;98554.94;4162494;28;20250;-54
2022/06/09 09:41:00;;;;;;;3.78;1.20;;;;;;;17.44;67.11;98554.28;4159353;28;20628;-54
2022/06/09 09:43:36;;;;;;;4.18;1.55;;;;;;;17.55;67.22;98555.78;4160356;28;20224;-54
2022/06/09 09:45:44;;;;;;;4.10;1.10;;;;;;;17.53;65.73;98563.56;4161827;28;20201;-54
2022/06/09 09:47:49;;;;;;;8.02;1.77;;;;;;;17.30;67.03;98565.16;4161747;28;20212;-55
2022/06/09 09:49:51;;;;;;;5.10;1.42;;;;;;;17.32;65.47;98573.19;4155630;28;20841;-54
2022/06/09 09:51:53;;;;;;;4.43;1.10;;;;;;;17.27;65.39;98573.22;4158932;28;20206;-54
2022/06/09 09:53:56;;;;;;;6.85;1.35;;;;;;;17.12;65.26;98567.84;4159189;28;20307;-54